Time;durP1;ratioP1;P1;durP2;ratioP2;P2;SDS_P1;SDS_P2;PMS_P1;PMS_P2;Temp;Humidity;BMP_temperature;BMP_pressure;BME280_temperature;BME280_humidity;BME280_pressure;Samples;Min_cycle;Max_cycle;Signal;HPM_P1;HPM_P2
2023/05/08 00:01:32;;;;;;;13.88;10.18;;;;;;;14.67;100.00;101650.63;5072947;28;20059;-66
2023/05/08 00:04:20;;;;;;;11.13;9.02;;;;;;;15.53;100.00;101646.25;5075337;28;20053;-65
2023/05/08 00:07:07;;;;;;;11.48;8.82;;;;;;;15.76;100.00;101639.38;5090757;28;20076;-66
2023/05/08 00:09:55;;;;;;;12.30;9.35;;;;;;;15.23;95.71;101645.16;5093627;28;20047;-66
2023/05/08 00:12:42;;;;;;;13.10;9.63;;;;;;;14.81;97.06;101656.91;5080985;28;20048;-65
2023/05/08 00:15:30;;;;;;;13.05;9.07;;;;;;;15.04;99.61;101644.59;5074188;28;20053;-66
2023/05/08 00:18:18;;;;;;;14.68;9.10;;;;;;;14.65;97.56;101653.72;5073971;28;20063;-66
2023/05/08 00:21:05;;;;;;;13.63;8.77;;;;;;;14.70;100.00;101646.41;5105571;28;20621;-66
2023/05/08 00:23:53;;;;;;;13.45;8.75;;;;;;;14.34;99.54;101644.56;5103166;28;20499;-65
2023/05/08 00:26:43;;;;;;;12.48;8.90;;;;;;;14.73;100.00;101654.91;5114410;28;20054;-67
2023/05/08 00:29:30;;;;;;;12.70;8.48;;;;;;;14.71;98.59;101656.34;5085526;28;20074;-66
2023/05/08 00:32:18;;;;;;;13.05;9.75;;;;;;;14.27;100.00;101641.41;5078803;28;20048;-66
2023/05/08 00:35:06;;;;;;;11.90;9.18;;;;;;;14.56;100.00;101641.75;5088902;28;20052;-66
2023/05/08 00:37:54;;;;;;;11.25;8.95;;;;;;;14.39;100.00;101640.84;5093776;28;20040;-65
2023/05/08 00:40:42;;;;;;;13.93;9.52;;;;;;;15.20;100.00;101634.69;5089677;28;20357;-66
2023/05/08 00:43:29;;;;;;;11.40;8.65;;;;;;;14.58;97.14;101644.22;5074246;28;20047;-67
2023/05/08 00:46:17;;;;;;;10.60;8.35;;;;;;;15.13;100.00;101641.84;5104593;28;20047;-66
2023/05/08 00:49:05;;;;;;;12.48;9.35;;;;;;;14.97;98.09;101640.66;5094147;28;20666;-66
2023/05/08 00:51:54;;;;;;;14.07;9.95;;;;;;;14.24;98.18;101638.44;5108167;28;20048;-65
2023/05/08 00:54:43;;;;;;;11.07;8.68;;;;;;;14.91;100.00;101633.59;5098135;28;20047;-66
2023/05/08 00:57:34;;;;;;;12.93;9.15;;;;;;;14.53;97.89;101633.25;5078293;28;20063;-66
2023/05/08 01:00:22;;;;;;;11.82;9.07;;;;;;;14.20;99.55;101629.09;5084391;28;20161;-65
2023/05/08 01:03:11;;;;;;;14.13;10.25;;;;;;;14.20;100.00;101623.56;5064127;28;20063;-66
2023/05/08 01:05:59;;;;;;;16.23;10.82;;;;;;;13.96;100.00;101631.38;5082867;28;20056;-67
2023/05/08 01:08:46;;;;;;;16.60;10.13;;;;;;;13.90;100.00;101621.53;5114297;28;20055;-66
2023/05/08 01:11:51;;;;;;;15.93;10.80;;;;;;;14.00;100.00;101624.88;5098265;28;20498;-65
2023/05/08 01:15:05;;;;;;;14.00;10.48;;;;;;;14.01;100.00;101622.94;5097656;28;20055;-67
2023/05/08 01:18:20;;;;;;;14.02;10.13;;;;;;;14.15;100.00;101632.81;5113759;28;20044;-66
2023/05/08 01:21:11;;;;;;;14.40;10.25;;;;;;;14.46;100.00;101627.34;5098597;28;20059;-66
2023/05/08 01:24:22;;;;;;;14.43;10.80;;;;;;;14.33;99.92;101637.38;5097106;28;20061;-66
2023/05/08 01:27:28;;;;;;;14.43;10.37;;;;;;;14.75;100.00;101641.50;5077025;28;20470;-66
2023/05/08 01:30:42;;;;;;;17.95;11.68;;;;;;;14.22;100.00;101643.47;5078672;28;20063;-66
2023/05/08 01:33:50;;;;;;;19.00;12.73;;;;;;;13.69;100.00;101643.34;5075724;28;20098;-65
2023/05/08 01:36:56;;;;;;;17.33;12.65;;;;;;;13.69;100.00;101636.97;5091877;28;20052;-65
2023/05/08 01:40:07;;;;;;;17.70;13.20;;;;;;;13.40;100.00;101635.41;5093812;28;20051;-65
2023/05/08 01:43:25;;;;;;;22.10;14.55;;;;;;;13.14;100.00;101644.56;5079162;28;20232;-64
2023/05/08 01:46:17;;;;;;;21.33;15.10;;;;;;;13.13;100.00;101649.25;5080974;28;20051;-65
2023/05/08 01:49:35;;;;;;;19.20;14.60;;;;;;;13.32;100.00;101654.66;5089690;28;20052;-66
2023/05/08 01:52:30;;;;;;;21.13;15.88;;;;;;;13.04;100.00;101648.34;5103506;27;20047;-65
2023/05/08 01:55:25;;;;;;;21.23;15.75;;;;;;;13.28;100.00;101648.97;5093162;28;20052;-65
2023/05/08 01:58:15;;;;;;;24.60;17.27;;;;;;;13.38;100.00;101650.69;5079181;28;20059;-65
2023/05/08 02:01:03;;;;;;;22.55;16.65;;;;;;;13.25;100.00;101646.00;5086462;28;20052;-65
2023/05/08 02:03:52;;;;;;;24.80;17.38;;;;;;;13.39;100.00;101644.00;5063231;28;20056;-64
2023/05/08 02:06:40;;;;;;;25.05;15.75;;;;;;;13.30;100.00;101643.13;5099438;28;20047;-65
2023/05/08 02:09:28;;;;;;;24.23;16.63;;;;;;;13.99;100.00;101652.88;5112203;28;20450;-65
2023/05/08 02:12:17;;;;;;;27.23;17.80;;;;;;;13.31;100.00;101653.88;5112472;28;20079;-65
2023/05/08 02:15:07;;;;;;;24.08;18.35;;;;;;;13.26;100.00;101658.69;5096035;28;20052;-66
2023/05/08 02:17:54;;;;;;;21.63;17.40;;;;;;;13.02;100.00;101658.88;5111992;28;20058;-66
2023/05/08 02:20:42;;;;;;;25.83;19.20;;;;;;;12.59;100.00;101664.97;5097126;28;20060;-66
2023/05/08 02:23:32;;;;;;;26.88;19.83;;;;;;;12.94;100.00;101656.81;5056920;28;20052;-66
2023/05/08 02:26:21;;;;;;;23.63;18.73;;;;;;;13.05;100.00;101658.28;5076773;28;20052;-66
2023/05/08 02:29:09;;;;;;;32.20;22.00;;;;;;;12.78;100.00;101658.22;5091940;28;20648;-66
2023/05/08 02:31:57;;;;;;;30.20;23.95;;;;;;;12.66;100.00;101674.47;5089379;28;20070;-66
2023/05/08 02:34:46;;;;;;;33.22;23.08;;;;;;;12.35;100.00;101662.31;5096232;28;20058;-65
2023/05/08 02:37:51;;;;;;;34.65;24.27;;;;;;;12.30;100.00;101671.53;5111579;28;20043;-66
2023/05/08 02:40:43;;;;;;;34.60;24.35;;;;;;;12.15;100.00;101673.72;5111413;28;20047;-67
2023/05/08 02:43:31;;;;;;;35.88;23.50;;;;;;;13.16;100.00;101669.97;5093986;28;20051;-66
2023/05/08 02:46:48;;;;;;;33.38;24.52;;;;;;;12.87;100.00;101661.09;5065349;28;20048;-65
2023/05/08 02:50:02;;;;;;;40.55;26.05;;;;;;;12.13;100.00;101673.19;5080525;28;20055;-66
2023/05/08 02:52:53;;;;;;;43.55;28.83;;;;;;;12.05;100.00;101680.22;5068256;28;20523;-67
2023/05/08 02:55:54;;;;;;;48.83;29.88;;;;;;;11.99;100.00;101661.28;5089156;27;20508;-65
2023/05/08 02:58:41;;;;;;;43.53;28.60;;;;;;;11.90;100.00;101668.59;5115449;27;20051;-65
2023/05/08 03:01:34;;;;;;;45.35;29.27;;;;;;;11.95;100.00;101666.56;5100573;28;20055;-65
2023/05/08 03:04:27;;;;;;;45.63;29.20;;;;;;;12.12;100.00;101666.84;5100897;28;20055;-66
2023/05/08 03:07:15;;;;;;;48.75;29.98;;;;;;;11.80;100.00;101664.03;5085137;27;20055;-66
2023/05/08 03:10:06;;;;;;;49.67;29.52;;;;;;;11.66;100.00;101659.56;5101193;28;20048;-67
2023/05/08 03:12:55;;;;;;;50.13;29.95;;;;;;;11.79;100.00;101654.09;5115703;28;20078;-66
2023/05/08 03:15:54;;;;;;;49.85;29.85;;;;;;;11.74;100.00;101659.72;5100453;28;20557;-66
2023/05/08 03:18:52;;;;;;;49.83;31.00;;;;;;;12.29;100.00;101656.06;5087027;28;20617;-66
2023/05/08 03:21:42;;;;;;;51.42;30.90;;;;;;;12.16;100.00;101654.09;5091294;28;20458;-66
2023/05/08 03:24:30;;;;;;;46.92;28.60;;;;;;;11.89;100.00;101655.91;5080949;28;20052;-65
2023/05/08 03:27:19;;;;;;;41.90;27.38;;;;;;;12.27;100.00;101660.25;5084908;28;20055;-65
2023/05/08 03:30:08;;;;;;;41.80;27.83;;;;;;;12.37;100.00;101660.91;5068596;28;20064;-65
2023/05/08 03:32:58;;;;;;;46.17;29.52;;;;;;;12.21;100.00;101664.22;5065068;28;20067;-65
2023/05/08 03:35:47;;;;;;;49.42;31.02;;;;;;;11.96;100.00;101654.41;5066674;28;20067;-66
2023/05/08 03:38:35;;;;;;;45.47;29.55;;;;;;;11.89;100.00;101661.44;5066699;28;20074;-65
2023/05/08 03:41:24;;;;;;;48.65;29.33;;;;;;;12.07;100.00;101668.88;5079100;28;20044;-64
2023/05/08 03:44:12;;;;;;;46.60;28.77;;;;;;;12.16;100.00;101662.38;5102118;28;20388;-65
2023/05/08 03:47:01;;;;;;;47.10;28.92;;;;;;;11.93;100.00;101649.47;5096632;28;20055;-65
2023/05/08 03:49:49;;;;;;;46.92;30.05;;;;;;;11.96;100.00;101657.16;5101752;27;20063;-65
2023/05/08 03:52:37;;;;;;;45.55;29.85;;;;;;;12.86;100.00;101648.41;5079899;28;20060;-65
2023/05/08 03:55:25;;;;;;;42.90;29.63;;;;;;;12.98;100.00;101651.47;5080317;28;20048;-65
2023/05/08 03:58:17;;;;;;;44.67;30.48;;;;;;;12.32;100.00;101661.00;5096096;28;20052;-66
2023/05/08 04:01:42;;;;;;;44.25;29.73;;;;;;;12.40;100.00;101659.47;5097090;28;20543;-66
2023/05/08 04:04:36;;;;;;;40.88;28.50;;;;;;;13.11;100.00;101653.47;5099515;28;20058;-63
2023/05/08 04:07:28;;;;;;;37.38;25.83;;;;;;;12.87;100.00;101648.09;5107304;27;20039;-63
2023/05/08 04:10:22;;;;;;;42.63;26.58;;;;;;;12.70;100.00;101645.13;5118827;27;20062;-63
2023/05/08 04:13:17;;;;;;;43.03;26.52;;;;;;;12.12;100.00;101652.22;5094555;28;20505;-63
2023/05/08 04:16:15;;;;;;;43.42;26.90;;;;;;;12.24;100.00;101647.88;5085929;28;20047;-62
2023/05/08 04:19:09;;;;;;;40.53;28.08;;;;;;;12.04;100.00;101645.44;5099455;28;20606;-63
2023/05/08 04:22:05;;;;;;;45.03;28.65;;;;;;;12.02;100.00;101649.63;5084458;28;20051;-62
2023/05/08 04:24:55;;;;;;;44.00;28.30;;;;;;;11.78;100.00;101646.13;5081096;28;20059;-62
2023/05/08 04:27:43;;;;;;;42.33;28.30;;;;;;;11.79;100.00;101639.47;5085451;28;20048;-62
2023/05/08 04:30:32;;;;;;;44.95;29.75;;;;;;;11.88;100.00;101640.44;5099109;28;20055;-62
2023/05/08 04:33:20;;;;;;;48.63;31.27;;;;;;;11.78;100.00;101640.63;5099097;28;20051;-62
2023/05/08 04:36:12;;;;;;;47.17;29.38;;;;;;;11.69;100.00;101642.41;5100378;28;20759;-62
2023/05/08 04:39:02;;;;;;;42.40;28.63;;;;;;;11.66;100.00;101645.75;5098608;28;20059;-63
2023/05/08 04:41:51;;;;;;;45.92;30.75;;;;;;;11.87;100.00;101647.09;5102578;28;20052;-62
2023/05/08 04:44:39;;;;;;;43.08;27.58;;;;;;;11.98;100.00;101649.41;5084101;28;20055;-62
2023/05/08 04:47:27;;;;;;;39.13;26.27;;;;;;;11.95;100.00;101650.00;5088076;28;20055;-63
2023/05/08 04:50:15;;;;;;;40.30;26.77;;;;;;;12.21;100.00;101651.22;5097647;28;20051;-63
2023/05/08 04:53:02;;;;;;;40.00;26.10;;;;;;;12.24;100.00;101653.38;5096655;28;20047;-63
2023/05/08 04:55:51;;;;;;;34.22;24.20;;;;;;;12.48;100.00;101657.97;5098062;28;20048;-62
2023/05/08 04:58:39;;;;;;;36.33;25.80;;;;;;;12.41;100.00;101650.88;5096105;28;20036;-63
2023/05/08 05:01:27;;;;;;;34.22;23.95;;;;;;;12.80;100.00;101646.84;5076345;28;20052;-62
2023/05/08 05:04:15;;;;;;;35.08;24.05;;;;;;;13.02;100.00;101653.34;5075928;28;20055;-62
2023/05/08 05:07:03;;;;;;;36.83;23.55;;;;;;;12.86;100.00;101654.78;5090457;28;20052;-62
2023/05/08 05:09:51;;;;;;;33.20;22.92;;;;;;;12.60;100.00;101661.91;5079892;28;20048;-63
2023/05/08 05:12:38;;;;;;;34.75;23.30;;;;;;;12.57;100.00;101670.78;5092961;28;20044;-63
2023/05/08 05:15:26;;;;;;;30.85;22.25;;;;;;;12.79;100.00;101679.22;5088529;28;20051;-62
2023/05/08 05:18:14;;;;;;;30.13;22.50;;;;;;;12.26;100.00;101677.94;5094666;28;20052;-60
2023/05/08 05:21:02;;;;;;;32.67;23.48;;;;;;;12.77;100.00;101678.72;5106940;28;20059;-62
2023/05/08 05:23:49;;;;;;;32.88;22.98;;;;;;;12.65;100.00;101686.69;5089098;28;20155;-62
2023/05/08 05:26:37;;;;;;;31.17;21.42;;;;;;;12.45;100.00;101693.38;5074544;28;20056;-63
2023/05/08 05:29:25;;;;;;;33.25;23.20;;;;;;;12.43;100.00;101689.25;5072535;28;20040;-62
2023/05/08 05:32:12;;;;;;;38.85;24.02;;;;;;;12.15;100.00;101693.84;5077774;28;20052;-61
2023/05/08 05:35:00;;;;;;;33.17;22.45;;;;;;;11.86;100.00;101701.50;5053431;28;20048;-62
2023/05/08 05:37:48;;;;;;;34.38;22.23;;;;;;;11.97;100.00;101711.28;5044347;28;20049;-62
2023/05/08 05:40:36;;;;;;;31.88;21.48;;;;;;;12.29;100.00;101708.53;5057940;28;20063;-62
2023/05/08 05:43:23;;;;;;;32.85;21.90;;;;;;;12.01;100.00;101701.25;5085664;28;20059;-62
2023/05/08 05:46:11;;;;;;;30.52;21.13;;;;;;;11.76;100.00;101707.16;5112220;28;20052;-62
2023/05/08 05:49:00;;;;;;;33.05;20.77;;;;;;;11.82;100.00;101705.16;5068851;28;20061;-62
2023/05/08 05:51:48;;;;;;;26.92;19.08;;;;;;;12.01;100.00;101705.97;5078519;28;20605;-63
2023/05/08 05:54:36;;;;;;;26.83;18.45;;;;;;;12.32;100.00;101718.19;5062183;28;20053;-62
2023/05/08 05:57:24;;;;;;;24.80;18.27;;;;;;;12.71;100.00;101704.78;5074788;28;20545;-62
2023/05/08 06:00:12;;;;;;;27.65;18.13;;;;;;;12.27;100.00;101707.22;5076455;28;20429;-62
2023/05/08 06:03:09;;;;;;;25.30;17.75;;;;;;;11.99;100.00;101730.31;5064648;28;20518;-62
2023/05/08 06:05:57;;;;;;;30.70;18.47;;;;;;;11.59;100.00;101734.41;5090609;28;20044;-62
2023/05/08 06:08:47;;;;;;;28.23;18.48;;;;;;;11.77;100.00;101733.63;5056638;28;20057;-62
2023/05/08 06:11:35;;;;;;;28.42;18.50;;;;;;;11.94;100.00;101733.13;5071091;28;20055;-63
2023/05/08 06:14:22;;;;;;;22.35;15.88;;;;;;;11.70;100.00;101741.44;5074112;28;20066;-63
2023/05/08 06:17:10;;;;;;;22.08;15.25;;;;;;;12.42;100.00;101737.34;5076725;28;20056;-63
2023/05/08 06:19:57;;;;;;;21.58;14.18;;;;;;;13.05;100.00;101729.38;5085432;28;20423;-62
2023/05/08 06:22:45;;;;;;;19.35;13.38;;;;;;;13.58;100.00;101736.88;5075090;28;20048;-63
2023/05/08 06:25:33;;;;;;;19.17;14.73;;;;;;;13.06;100.00;101740.13;5057461;28;20435;-62
2023/05/08 06:28:22;;;;;;;21.48;15.07;;;;;;;13.02;100.00;101736.31;5070799;28;20048;-63
2023/05/08 06:31:10;;;;;;;19.75;14.05;;;;;;;13.90;100.00;101727.59;5063292;28;20052;-62
2023/05/08 06:33:58;;;;;;;20.92;14.23;;;;;;;13.13;100.00;101743.31;5092725;28;20688;-63
2023/05/08 06:36:45;;;;;;;20.63;14.93;;;;;;;12.76;100.00;101745.38;5077259;28;20048;-62
2023/05/08 06:39:33;;;;;;;25.20;15.13;;;;;;;12.35;100.00;101745.22;5090946;28;20106;-62
2023/05/08 06:42:20;;;;;;;23.30;15.50;;;;;;;12.40;100.00;101739.59;5076681;28;20052;-62
2023/05/08 06:45:08;;;;;;;23.95;16.92;;;;;;;12.02;100.00;101732.47;5070554;28;20672;-65
2023/05/08 06:47:56;;;;;;;24.40;16.92;;;;;;;12.30;100.00;101735.06;5070233;28;20048;-64
2023/05/08 06:50:45;;;;;;;24.70;16.27;;;;;;;12.11;100.00;101741.72;5086896;28;20055;-63
2023/05/08 06:53:32;;;;;;;26.65;16.48;;;;;;;12.04;100.00;101742.09;5090616;28;20063;-65
2023/05/08 06:56:21;;;;;;;26.60;16.45;;;;;;;12.54;100.00;101743.25;5090988;28;20376;-66
2023/05/08 06:59:09;;;;;;;26.63;16.13;;;;;;;12.33;100.00;101751.03;5075462;28;20044;-67
2023/05/08 07:01:57;;;;;;;27.85;15.60;;;;;;;12.38;100.00;101752.88;5090888;28;20048;-67
2023/05/08 07:04:45;;;;;;;26.15;15.38;;;;;;;12.70;100.00;101747.41;5090137;28;20044;-65
2023/05/08 07:07:33;;;;;;;22.60;14.75;;;;;;;12.39;100.00;101754.53;5073842;28;20052;-67
2023/05/08 07:10:21;;;;;;;21.40;13.38;;;;;;;12.73;100.00;101755.06;5076519;28;20036;-66
2023/05/08 07:13:09;;;;;;;25.17;15.32;;;;;;;12.26;100.00;101761.66;5088999;28;20059;-67
2023/05/08 07:15:57;;;;;;;22.50;14.57;;;;;;;12.19;100.00;101765.88;5080571;28;20036;-64
2023/05/08 07:18:44;;;;;;;25.45;15.60;;;;;;;11.89;100.00;101769.09;5076300;28;20051;-66
2023/05/08 07:21:32;;;;;;;24.00;15.45;;;;;;;11.86;100.00;101767.75;5090492;28;20052;-66
2023/05/08 07:24:19;;;;;;;23.23;14.77;;;;;;;12.19;100.00;101772.25;5086681;28;20130;-66
2023/05/08 07:27:07;;;;;;;23.85;14.95;;;;;;;12.04;100.00;101775.25;5057205;28;20052;-66
2023/05/08 07:29:57;;;;;;;22.60;13.98;;;;;;;12.52;100.00;101775.88;5065652;28;20055;-65
2023/05/08 07:32:45;;;;;;;22.23;13.88;;;;;;;12.70;100.00;101776.97;5093555;28;20071;-64
2023/05/08 07:35:33;;;;;;;21.00;13.60;;;;;;;12.42;100.00;101782.41;5094447;28;20062;-66
2023/05/08 07:38:20;;;;;;;22.70;14.05;;;;;;;12.83;100.00;101777.00;5079694;28;20059;-65
2023/05/08 07:41:08;;;;;;;19.75;12.27;;;;;;;13.18;100.00;101778.38;5079729;28;20640;-64
2023/05/08 07:43:56;;;;;;;22.75;13.13;;;;;;;13.14;100.00;101783.69;5083191;28;20052;-66
2023/05/08 07:46:44;;;;;;;21.00;12.15;;;;;;;13.30;100.00;101787.00;5057485;28;20048;-64
2023/05/08 07:49:31;;;;;;;19.92;13.05;;;;;;;12.96;100.00;101783.72;5077106;28;20048;-64
2023/05/08 07:52:19;;;;;;;20.65;13.15;;;;;;;13.30;100.00;101785.03;5076451;28;20077;-64
2023/05/08 07:55:07;;;;;;;18.70;11.48;;;;;;;13.67;100.00;101784.03;5093883;28;20052;-66
2023/05/08 07:57:54;;;;;;;17.02;11.38;;;;;;;13.84;100.00;101778.72;5049367;28;20048;-65
2023/05/08 08:00:43;;;;;;;17.35;11.50;;;;;;;14.59;100.00;101776.97;5077288;28;20059;-65
2023/05/08 08:03:31;;;;;;;19.35;11.35;;;;;;;14.40;94.57;101784.66;5085417;28;20075;-64
2023/05/08 08:06:18;;;;;;;18.92;9.75;;;;;;;15.38;98.34;101789.06;5080881;28;20051;-65
2023/05/08 08:09:06;;;;;;;19.95;11.13;;;;;;;15.16;93.81;101791.91;5085775;28;20048;-66
2023/05/08 08:11:54;;;;;;;18.15;10.48;;;;;;;14.84;95.91;101786.63;5084464;28;21604;-65
2023/05/08 08:14:41;;;;;;;19.30;11.73;;;;;;;14.86;94.15;101789.91;5082517;28;20059;-64
2023/05/08 08:17:29;;;;;;;15.30;9.95;;;;;;;15.34;92.26;101790.03;5088854;28;20047;-64
2023/05/08 08:20:17;;;;;;;19.35;10.55;;;;;;;15.15;94.00;101790.25;5076894;28;20063;-64
2023/05/08 08:23:04;;;;;;;19.10;10.80;;;;;;;14.69;94.06;101792.56;5083863;28;20052;-65
2023/05/08 08:25:53;;;;;;;17.77;11.13;;;;;;;14.36;92.18;101791.97;5101049;28;20455;-65
2023/05/08 08:28:40;;;;;;;17.67;9.98;;;;;;;14.90;95.66;101788.16;5080281;28;20051;-64
2023/05/08 08:31:28;;;;;;;14.75;9.55;;;;;;;15.72;92.79;101788.44;5090287;28;20044;-64
2023/05/08 08:34:15;;;;;;;15.70;9.85;;;;;;;15.76;86.88;101790.22;5107261;28;20055;-65
2023/05/08 08:37:06;;;;;;;15.80;9.73;;;;;;;15.83;89.30;101786.16;5091620;28;20127;-66
2023/05/08 08:39:54;;;;;;;16.13;9.65;;;;;;;14.29;89.58;101801.84;5090198;28;20044;-64
2023/05/08 08:42:42;;;;;;;14.93;9.43;;;;;;;14.71;91.99;101792.25;5110001;28;20055;-64
2023/05/08 08:45:30;;;;;;;15.90;9.93;;;;;;;14.23;91.30;101795.56;5105757;28;20044;-64
2023/05/08 08:48:18;;;;;;;14.13;8.85;;;;;;;14.38;94.03;101791.66;5109148;27;20055;-64
2023/05/08 08:51:30;;;;;;;14.88;9.43;;;;;;;14.04;92.33;101799.59;5088880;28;20055;-65
2023/05/08 08:54:23;;;;;;;20.08;10.13;;;;;;;14.29;94.71;101791.59;5104883;28;20059;-64
2023/05/08 08:57:11;;;;;;;20.00;9.30;;;;;;;14.71;90.34;101795.84;5106832;28;20055;-64
2023/05/08 09:00:05;;;;;;;15.90;9.23;;;;;;;14.78;89.78;101798.16;5105251;28;20044;-64
2023/05/08 09:02:53;;;;;;;18.30;8.50;;;;;;;15.75;91.97;101796.09;5093487;28;20058;-63
2023/05/08 09:05:42;;;;;;;15.35;8.40;;;;;;;15.68;87.55;101796.59;5083565;28;20055;-64
2023/05/08 09:08:31;;;;;;;12.20;7.67;;;;;;;16.18;88.80;101799.00;5089041;28;20054;-64
2023/05/08 09:11:18;;;;;;;12.40;7.20;;;;;;;16.39;85.42;101803.59;5104882;27;20063;-64
2023/05/08 09:14:07;;;;;;;13.30;8.35;;;;;;;16.37;85.38;101802.31;5106447;27;20047;-64
2023/05/08 09:16:55;;;;;;;17.05;8.77;;;;;;;16.29;80.66;101800.31;5085742;28;20067;-64
2023/05/08 09:19:42;;;;;;;13.18;7.72;;;;;;;16.27;83.02;101805.38;5108950;28;20661;-64
2023/05/08 09:22:30;;;;;;;17.08;9.20;;;;;;;15.49;87.55;101801.56;5106738;28;20557;-63
2023/05/08 09:25:18;;;;;;;16.92;8.68;;;;;;;15.49;86.06;101807.13;5073566;28;20051;-65
2023/05/08 09:28:32;;;;;;;19.35;9.05;;;;;;;15.71;87.57;101803.44;5101861;28;20047;-64
2023/05/08 09:31:33;;;;;;;12.00;7.55;;;;;;;15.50;86.66;101805.16;5100431;28;20052;-64
2023/05/08 09:34:26;;;;;;;13.95;7.90;;;;;;;16.03;85.34;101796.66;5094324;28;20044;-63
2023/05/08 09:37:14;;;;;;;16.98;7.32;;;;;;;16.60;82.45;101796.28;5103931;27;20058;-61
2023/05/08 09:40:13;;;;;;;13.00;6.50;;;;;;;16.64;78.27;101780.56;5105615;28;20051;-62
2023/05/08 09:43:15;;;;;;;12.07;6.57;;;;;;;16.92;74.37;101780.19;5105850;28;20047;-61
2023/05/08 09:46:25;;;;;;;13.23;6.15;;;;;;;16.93;74.25;101771.50;5084753;28;20055;-64
2023/05/08 09:49:16;;;;;;;15.50;7.75;;;;;;;15.95;78.23;101780.81;5100611;27;20490;-62
2023/05/08 09:52:04;;;;;;;12.75;7.65;;;;;;;15.94;80.24;101779.16;5101350;28;20055;-62
2023/05/08 09:55:10;;;;;;;14.93;7.30;;;;;;;16.12;78.47;101781.66;5108000;27;20051;-64
2023/05/08 09:57:58;;;;;;;11.65;6.82;;;;;;;16.43;78.39;101765.66;5104738;27;20047;-58
2023/05/08 10:00:46;;;;;;;12.02;6.93;;;;;;;16.79;77.10;101765.31;5103056;27;20043;-62
2023/05/08 10:03:49;;;;;;;12.93;6.78;;;;;;;15.89;77.25;101757.91;5089219;28;20039;-62
2023/05/08 10:06:37;;;;;;;13.77;8.07;;;;;;;16.06;78.17;101757.09;5104796;27;20471;-62
2023/05/08 10:09:25;;;;;;;15.82;7.88;;;;;;;16.33;78.54;101749.31;5102660;27;20051;-61
2023/05/08 10:12:22;;;;;;;16.38;8.00;;;;;;;16.16;77.79;101749.25;5087733;28;20079;-63
2023/05/08 10:15:10;;;;;;;13.35;7.57;;;;;;;16.14;76.85;101746.03;5100932;27;20130;-61
2023/05/08 10:18:07;;;;;;;14.27;8.38;;;;;;;16.39;77.45;101738.81;5105984;28;20801;-61
2023/05/08 10:20:57;;;;;;;16.95;10.65;;;;;;;16.61;76.92;101735.91;5108172;28;20047;-61
2023/05/08 10:23:48;;;;;;;11.48;6.95;;;;;;;16.73;74.86;101745.22;5105546;28;20509;-61
2023/05/08 10:26:37;;;;;;;15.38;7.40;;;;;;;16.53;74.37;101739.50;5106339;28;20040;-62
2023/05/08 10:29:32;;;;;;;13.43;6.60;;;;;;;16.72;75.14;101742.72;5092481;28;20051;-62
2023/05/08 10:32:20;;;;;;;11.27;6.63;;;;;;;16.95;74.62;101727.47;5092738;28;20284;-61
2023/05/08 10:35:09;;;;;;;12.52;6.60;;;;;;;17.20;73.80;101728.53;5111942;28;20048;-63
2023/05/08 10:37:57;;;;;;;13.20;7.03;;;;;;;17.02;73.51;101729.75;5110508;28;20039;-61
2023/05/08 10:40:45;;;;;;;15.05;7.32;;;;;;;17.43;72.65;101727.97;5084065;28;20055;-62
2023/05/08 10:43:33;;;;;;;12.20;6.50;;;;;;;18.11;71.59;101723.13;5107932;28;20055;-62
2023/05/08 10:46:27;;;;;;;14.43;6.85;;;;;;;18.44;70.01;101715.69;5091623;28;20055;-61
2023/05/08 10:49:19;;;;;;;13.48;6.95;;;;;;;18.42;68.69;101710.44;5095347;28;20423;-64
2023/05/08 10:52:15;;;;;;;12.18;6.28;;;;;;;18.24;68.31;101711.72;5110135;28;20044;-61
2023/05/08 10:55:18;;;;;;;13.15;6.65;;;;;;;18.43;68.21;101705.69;5104540;28;20451;-62
2023/05/08 10:58:28;;;;;;;13.10;6.80;;;;;;;18.15;68.09;101715.75;5091790;28;20055;-62
2023/05/08 11:01:16;;;;;;;11.80;6.57;;;;;;;17.93;69.83;101700.97;5105458;28;20040;-63
2023/05/08 11:04:18;;;;;;;13.25;6.97;;;;;;;17.83;70.10;101701.38;5103382;28;20293;-62
2023/05/08 11:07:06;;;;;;;12.07;7.32;;;;;;;18.33;68.97;101683.75;5100251;27;20058;-62
2023/05/08 11:10:06;;;;;;;14.23;6.82;;;;;;;18.58;66.82;101680.75;5109632;27;20040;-62
2023/05/08 11:12:53;;;;;;;11.43;5.60;;;;;;;18.91;66.34;101678.75;5099555;27;20070;-62
2023/05/08 11:15:48;;;;;;;9.15;5.53;;;;;;;18.63;65.57;101680.53;5109968;27;20047;-63
2023/05/08 11:18:36;;;;;;;9.43;5.75;;;;;;;18.23;67.17;101670.22;5111137;27;21610;-62
2023/05/08 11:21:36;;;;;;;11.73;5.60;;;;;;;18.74;66.80;101670.53;5111534;27;20636;-64
2023/05/08 11:24:34;;;;;;;11.02;6.28;;;;;;;18.59;66.32;101670.38;5098531;27;20063;-62
2023/05/08 11:27:37;;;;;;;14.23;5.85;;;;;;;19.33;65.74;101665.44;5110030;27;20043;-62
2023/05/08 11:30:28;;;;;;;11.57;5.47;;;;;;;19.12;64.79;101664.69;5107273;27;20055;-62
2023/05/08 11:33:16;;;;;;;9.57;5.38;;;;;;;19.02;64.76;101659.56;5110763;27;20507;-61
2023/05/08 11:36:13;;;;;;;11.57;5.30;;;;;;;18.69;65.99;101658.81;5093273;27;20074;-62
2023/05/08 11:39:06;;;;;;;11.18;5.78;;;;;;;19.03;65.92;101648.03;5101547;27;20051;-62
2023/05/08 11:41:54;;;;;;;10.38;5.30;;;;;;;19.43;63.53;101642.59;5106933;27;20040;-62
2023/05/08 11:44:41;;;;;;;10.13;5.35;;;;;;;18.92;65.08;101632.06;5110525;27;20048;-62
2023/05/08 11:47:43;;;;;;;9.73;5.55;;;;;;;18.87;64.96;101635.91;5111644;27;20051;-61
2023/05/08 11:50:30;;;;;;;9.70;5.75;;;;;;;19.25;64.49;101618.03;5108242;27;20054;-62
2023/05/08 11:53:18;;;;;;;14.15;5.13;;;;;;;19.44;64.74;101613.47;5093956;28;20502;-61
2023/05/08 11:56:06;;;;;;;11.25;5.18;;;;;;;18.68;65.58;101612.50;5072267;27;20051;-61
2023/05/08 11:59:02;;;;;;;9.32;5.30;;;;;;;18.65;66.59;101605.66;5090674;27;20055;-62
2023/05/08 12:01:50;;;;;;;11.85;5.00;;;;;;;18.51;66.83;101607.94;5111866;27;20539;-63
2023/05/08 12:04:45;;;;;;;10.50;4.95;;;;;;;18.55;67.17;101602.50;5109719;27;20051;-63
2023/05/08 12:07:46;;;;;;;8.57;4.80;;;;;;;18.83;65.78;101603.44;5106922;27;20051;-61
2023/05/08 12:10:40;;;;;;;;;;;;;;;18.99;65.77;101601.59;5111875;27;20702;-60
2023/05/08 12:13:28;;;;;;;11.23;4.50;;;;;;;19.25;65.25;101592.88;5094724;27;19928;-62
2023/05/08 12:16:16;;;;;;;10.50;4.70;;;;;;;19.38;63.68;101594.50;5069315;28;20056;-61
2023/05/08 12:19:09;;;;;;;9.55;4.55;;;;;;;19.80;64.08;101593.84;5108436;27;20054;-62
2023/05/08 12:21:57;;;;;;;11.23;5.15;;;;;;;19.66;64.46;101581.41;5114111;27;20050;-62
2023/05/08 12:24:57;;;;;;;12.27;5.10;;;;;;;19.54;63.55;101587.03;5106700;28;20713;-61
2023/05/08 12:27:45;;;;;;;10.15;4.88;;;;;;;19.58;64.24;101588.78;5097433;27;20047;-61
2023/05/08 12:30:33;;;;;;;8.95;4.40;;;;;;;19.48;63.71;101585.66;5098074;27;20047;-61
2023/05/08 12:33:20;;;;;;;7.75;4.22;;;;;;;19.56;63.21;101582.72;5093459;27;20404;-62
2023/05/08 12:36:08;;;;;;;8.50;4.40;;;;;;;20.15;61.06;101582.88;5093031;27;20044;-62
2023/05/08 12:39:11;;;;;;;10.85;4.38;;;;;;;20.42;60.56;101575.63;5116065;27;20055;-61
2023/05/08 12:41:59;;;;;;;8.88;4.60;;;;;;;20.25;60.43;101573.16;5103932;27;20051;-62
2023/05/08 12:44:51;;;;;;;8.45;4.50;;;;;;;20.44;59.62;101574.13;5112334;27;20043;-60
2023/05/08 12:47:39;;;;;;;10.15;4.55;;;;;;;20.12;60.41;101566.78;5106962;28;20055;-62
2023/05/08 12:50:29;;;;;;;7.40;3.72;;;;;;;20.60;60.64;101566.56;5104270;27;20482;-61
2023/05/08 12:53:18;;;;;;;9.38;4.28;;;;;;;20.52;60.82;101563.94;5112727;27;20047;-62
2023/05/08 12:56:06;;;;;;;11.32;4.82;;;;;;;21.02;59.59;101558.44;5104767;27;20043;-61
2023/05/08 12:58:57;;;;;;;8.07;3.72;;;;;;;21.30;57.22;101561.91;5109741;27;20062;-61